Time;durP1;ratioP1;P1;durP2;ratioP2;P2;SDS_P1;SDS_P2;PMS_P1;PMS_P2;Temp;Humidity;BMP_temperature;BMP_pressure;BME280_temperature;BME280_humidity;BME280_pressure;Samples;Min_cycle;Max_cycle;Signal;HPM_P1;HPM_P2
2023/02/23 00:00:52;;;;;;;26.40;17.50;;;;;;;10.02;89.66;97804.44;4191492;28;21024;-81
2023/02/23 00:02:57;;;;;;;26.20;16.10;;;;;;;10.01;89.39;97800.19;4200031;28;20691;-81
2023/02/23 00:05:01;;;;;;;19.77;16.40;;;;;;;9.98;89.33;97805.63;4197723;28;20662;-81
2023/02/23 00:07:06;;;;;;;21.73;17.93;;;;;;;9.98;89.65;97797.81;4199430;28;20697;-81
2023/02/23 00:09:21;;;;;;;18.40;15.50;;;;;;;10.00;90.35;97801.13;4198213;28;20626;-81
2023/02/23 00:11:25;;;;;;;24.17;17.17;;;;;;;9.99;89.99;97802.06;4197141;28;20623;-81
2023/02/23 00:13:29;;;;;;;20.73;16.90;;;;;;;10.01;89.84;97796.75;4198379;28;20631;-82
2023/02/23 00:15:32;;;;;;;25.60;17.13;;;;;;;10.00;89.73;97797.72;4198824;28;20666;-83
2023/02/23 00:17:36;;;;;;;24.10;16.93;;;;;;;9.99;89.70;97796.84;4202238;28;20650;-83
2023/02/23 00:19:42;;;;;;;21.43;17.53;;;;;;;9.96;89.85;97794.47;4189635;28;20636;-81
2023/02/23 00:21:46;;;;;;;23.27;16.90;;;;;;;9.95;90.17;97795.44;4195848;28;20667;-82
2023/02/23 00:23:52;;;;;;;22.83;17.27;;;;;;;9.96;89.83;97797.06;4200759;28;20642;-82
2023/02/23 00:25:55;;;;;;;21.37;16.70;;;;;;;9.96;90.40;97794.47;4195274;28;20641;-82
2023/02/23 00:28:01;;;;;;;22.13;17.10;;;;;;;9.98;90.70;97797.81;4206240;28;20630;-82
2023/02/23 00:30:07;;;;;;;24.57;17.70;;;;;;;9.98;89.98;97791.75;4199017;28;20658;-82
2023/02/23 00:32:10;;;;;;;20.40;18.20;;;;;;;9.98;90.54;97791.75;4193517;28;20631;-82
2023/02/23 00:34:14;;;;;;;23.73;17.70;;;;;;;9.98;90.31;97795.22;4194524;28;20681;-82
2023/02/23 00:36:18;;;;;;;23.23;17.40;;;;;;;9.98;90.26;97792.59;4185203;28;20675;-82
2023/02/23 00:38:21;;;;;;;22.00;16.83;;;;;;;9.97;90.53;97796.13;4180256;28;21207;-82
2023/02/23 00:40:26;;;;;;;25.47;18.10;;;;;;;9.99;90.60;97791.63;4199119;28;20687;-81
2023/02/23 00:42:31;;;;;;;22.00;17.60;;;;;;;9.99;90.64;97793.44;4182583;28;20695;-81
2023/02/23 00:44:39;;;;;;;27.27;21.77;;;;;;;9.97;90.71;97793.53;4200482;28;20643;-80
2023/02/23 00:46:43;;;;;;;27.13;21.63;;;;;;;9.94;90.08;97791.16;4191283;28;21311;-80
2023/02/23 00:48:47;;;;;;;27.80;22.60;;;;;;;9.93;91.43;97786.88;4187110;28;20696;-80
2023/02/23 00:50:58;;;;;;;27.67;21.90;;;;;;;9.92;91.20;97787.78;4200314;28;20201;-80
2023/02/23 00:53:01;;;;;;;28.50;23.43;;;;;;;9.90;91.04;97792.25;4182124;28;21067;-80
2023/02/23 00:55:06;;;;;;;29.60;22.93;;;;;;;9.90;91.16;97784.44;4204748;28;20630;-80
2023/02/23 00:57:10;;;;;;;28.70;21.17;;;;;;;9.89;91.09;97788.00;4198980;28;20622;-80
2023/02/23 00:59:14;;;;;;;26.03;21.13;;;;;;;9.91;91.13;97785.28;4197500;28;21094;-78
2023/02/23 01:01:18;;;;;;;22.03;19.03;;;;;;;9.91;90.89;97786.13;4199516;28;20958;-79
2023/02/23 01:03:22;;;;;;;20.57;18.33;;;;;;;9.92;91.11;97785.19;4190444;28;20676;-79
2023/02/23 01:05:25;;;;;;;29.63;17.63;;;;;;;9.92;91.13;97785.19;4180863;28;20675;-79
2023/02/23 01:07:29;;;;;;;25.47;18.57;;;;;;;9.95;91.05;97781.53;4200442;28;20660;-79
2023/02/23 01:09:32;;;;;;;22.70;18.03;;;;;;;9.94;90.94;97785.94;4184040;28;20629;-79
2023/02/23 01:11:36;;;;;;;25.10;19.10;;;;;;;9.97;91.02;97790.09;4194835;28;20653;-79
2023/02/23 01:13:42;;;;;;;26.27;18.43;;;;;;;9.96;90.24;97794.47;4199463;28;21405;-80
2023/02/23 01:15:46;;;;;;;22.77;19.17;;;;;;;9.97;90.88;97784.91;4198174;28;20641;-79
2023/02/23 01:17:50;;;;;;;24.13;18.67;;;;;;;9.98;90.59;97795.22;4202545;28;21285;-79
2023/02/23 01:19:54;;;;;;;26.53;19.63;;;;;;;9.97;91.17;97790.94;4199458;28;21008;-82
2023/02/23 01:21:57;;;;;;;28.33;21.80;;;;;;;9.96;91.46;97793.63;4177013;28;21206;-82
2023/02/23 01:24:01;;;;;;;25.87;20.03;;;;;;;9.94;90.82;97793.75;4201782;28;20627;-82
2023/02/23 01:26:04;;;;;;;31.37;21.70;;;;;;;9.91;91.11;97780.09;4198883;28;20627;-82
2023/02/23 01:28:07;;;;;;;26.97;21.20;;;;;;;9.92;91.19;97787.78;4190454;28;20643;-82
2023/02/23 01:30:15;;;;;;;23.70;18.77;;;;;;;9.93;91.14;97789.47;4197509;28;20778;-81
2023/02/23 01:32:19;;;;;;;27.93;20.00;;;;;;;9.93;90.96;97783.41;4197030;28;21023;-82
2023/02/23 01:34:23;;;;;;;26.13;21.57;;;;;;;9.94;91.35;97780.72;4198496;28;20658;-81
2023/02/23 01:36:28;;;;;;;29.20;21.50;;;;;;;9.93;91.36;97776.44;4200498;28;21642;-81
2023/02/23 01:38:35;;;;;;;29.43;23.77;;;;;;;9.93;91.06;97780.81;4201522;28;21243;-82
2023/02/23 01:40:46;;;;;;;27.70;22.30;;;;;;;9.91;91.79;97775.69;4188658;28;20720;-81
2023/02/23 01:42:49;;;;;;;27.97;22.50;;;;;;;9.91;92.04;97775.69;4195198;28;21619;-82
2023/02/23 01:45:23;;;;;;;30.43;22.77;;;;;;;9.91;92.39;97778.31;4187859;28;20637;-82
2023/02/23 01:47:27;;;;;;;28.17;21.57;;;;;;;9.90;92.29;97774.03;4193805;28;20677;-81
2023/02/23 01:49:30;;;;;;;30.90;22.20;;;;;;;9.88;92.75;97775.09;4195506;28;20696;-81
2023/02/23 01:51:39;;;;;;;25.90;20.33;;;;;;;9.87;92.29;97778.63;4201501;28;20622;-82
2023/02/23 01:53:45;;;;;;;25.27;19.80;;;;;;;9.86;93.38;97779.56;4198642;28;20213;-82
2023/02/23 01:55:50;;;;;;;26.70;20.40;;;;;;;9.87;92.98;97782.06;4187818;28;21283;-81
2023/02/23 01:57:55;;;;;;;26.57;20.53;;;;;;;9.88;92.76;97782.91;4192480;28;21023;-81
2023/02/23 01:59:58;;;;;;;31.57;20.63;;;;;;;9.88;93.08;97785.50;4196698;28;20608;-82
2023/02/23 02:02:04;;;;;;;28.47;21.00;;;;;;;9.91;92.99;97785.28;4202075;28;20646;-82
2023/02/23 02:04:08;;;;;;;29.00;21.03;;;;;;;9.91;93.17;97780.91;4196894;28;20742;-82
2023/02/23 02:06:14;;;;;;;26.10;20.70;;;;;;;9.88;92.52;97785.50;4193878;28;20654;-82
2023/02/23 02:08:18;;;;;;;23.67;19.47;;;;;;;9.82;92.73;97778.13;4190610;28;20730;-82
2023/02/23 02:12:44;;;;;;;23.77;18.30;;;;;;;9.77;93.03;97775.00;4186802;28;20731;-81
2023/02/23 02:14:50;;;;;;;25.20;18.00;;;;;;;9.75;93.08;97773.47;4196352;28;20682;-82
2023/02/23 02:17:07;;;;;;;26.97;19.90;;;;;;;9.65;92.43;97762.00;4188193;28;20690;-80
2023/02/23 02:19:30;;;;;;;28.40;22.00;;;;;;;9.65;93.27;97767.22;4197501;28;20635;-81
2023/02/23 02:22:08;;;;;;;29.58;20.38;;;;;;;9.65;93.79;97764.63;4199945;28;20630;-82
2023/02/23 02:24:43;;;;;;;28.17;20.30;;;;;;;9.64;94.32;97762.97;4195796;28;20235;-82
2023/02/23 02:26:56;;;;;;;27.60;19.93;;;;;;;9.64;94.12;97760.38;4166179;28;20205;-83
2023/02/23 02:29:41;;;;;;;26.02;20.52;;;;;;;9.65;94.06;97756.81;4198061;28;21097;-82
2023/02/23 02:32:14;;;;;;;27.60;20.23;;;;;;;9.66;94.44;97763.69;4193851;28;20224;-82
2023/02/23 02:34:56;;;;;;;25.07;19.50;;;;;;;9.65;94.69;97762.88;4196460;28;20630;-82
2023/02/23 02:37:23;;;;;;;26.60;21.30;;;;;;;9.67;95.03;97754.94;4200718;28;20731;-82
2023/02/23 02:39:34;;;;;;;29.73;21.10;;;;;;;9.68;95.48;97760.03;4181742;28;20633;-82
2023/02/23 02:41:46;;;;;;;25.23;20.00;;;;;;;9.68;95.45;97762.66;4186729;28;20989;-82
2023/02/23 02:43:54;;;;;;;27.27;20.20;;;;;;;9.69;95.81;97768.69;4200452;28;20651;-82
2023/02/23 02:46:03;;;;;;;26.57;20.37;;;;;;;9.67;95.31;97755.75;4190002;28;20627;-81
2023/02/23 02:48:14;;;;;;;29.93;21.13;;;;;;;9.68;95.48;97757.44;4202330;28;20651;-81
2023/02/23 02:50:23;;;;;;;29.85;20.15;;;;;;;9.68;95.24;97754.84;4195545;28;20628;-81
2023/02/23 02:52:30;;;;;;;25.10;19.80;;;;;;;9.68;95.37;97760.03;4196888;28;20249;-81
2023/02/23 02:54:36;;;;;;;28.90;20.13;;;;;;;9.68;95.40;97761.78;4185596;28;20643;-82
2023/02/23 02:56:41;;;;;;;26.57;20.43;;;;;;;9.68;95.73;97765.25;4202656;28;20676;-82
2023/02/23 02:58:45;;;;;;;28.13;19.57;;;;;;;9.67;96.21;97760.97;4201548;28;20686;-82
2023/02/23 04:18:04;;;;;;;26.03;20.50;;;;;;;9.66;98.85;97758.47;4192923;28;20639;-81
2023/02/23 04:20:10;;;;;;;26.73;20.30;;;;;;;9.66;98.74;97761.09;4186315;28;20647;-81
2023/02/23 04:22:13;;;;;;;26.07;21.97;;;;;;;9.65;98.83;97757.66;4202594;28;20703;-81
2023/02/23 04:24:16;;;;;;;27.70;20.97;;;;;;;9.66;98.98;97766.28;4185717;28;21259;-80
2023/02/23 04:26:19;;;;;;;28.53;22.20;;;;;;;9.67;98.91;97762.75;4178655;28;20638;-80
2023/02/23 04:28:24;;;;;;;28.13;20.30;;;;;;;9.67;98.73;97765.34;4200376;28;20634;-80
2023/02/23 04:30:29;;;;;;;29.03;19.93;;;;;;;9.68;99.04;97761.78;4198683;28;20645;-80
2023/02/23 04:32:32;;;;;;;25.13;20.70;;;;;;;9.66;98.63;97758.47;4201921;28;20639;-80
2023/02/23 04:34:35;;;;;;;24.88;19.50;;;;;;;9.67;98.94;97765.34;4195834;28;20638;-82
2023/02/23 04:36:39;;;;;;;26.63;20.70;;;;;;;9.69;99.24;97768.69;4189063;28;20870;-80
2023/02/23 04:38:42;;;;;;;30.47;20.63;;;;;;;9.69;98.74;97766.06;4184821;28;20635;-80
2023/02/23 04:40:45;;;;;;;27.50;20.73;;;;;;;9.69;98.73;97774.69;4195890;28;20713;-80
2023/02/23 04:42:49;;;;;;;28.80;21.03;;;;;;;9.68;99.01;97764.41;4206594;28;20618;-80
2023/02/23 04:44:52;;;;;;;27.67;20.90;;;;;;;9.69;99.01;97769.50;4199431;28;20652;-80
2023/02/23 04:46:57;;;;;;;29.90;21.40;;;;;;;9.69;99.40;97777.31;4181590;28;20671;-80
2023/02/23 04:49:01;;;;;;;29.20;19.97;;;;;;;9.70;99.20;97772.94;4198787;28;20201;-80
2023/02/23 04:51:04;;;;;;;24.38;20.13;;;;;;;9.70;99.21;97765.97;4188749;28;20728;-80
2023/02/23 04:53:07;;;;;;;26.10;19.87;;;;;;;9.71;98.85;97766.78;4187252;28;20304;-79
2023/02/23 04:55:16;;;;;;;26.60;22.07;;;;;;;9.72;99.17;97778.88;4185092;28;20690;-79
2023/02/23 04:57:19;;;;;;;27.67;21.43;;;;;;;9.72;99.29;97771.06;4195962;28;20633;-80
2023/02/23 04:59:22;;;;;;;35.17;23.20;;;;;;;9.73;98.69;97770.13;4182897;28;20636;-80
2023/02/23 05:01:27;;;;;;;30.07;22.73;;;;;;;9.74;99.57;97775.25;4176346;28;21247;-81
2023/02/23 05:03:32;;;;;;;27.17;21.13;;;;;;;9.74;99.27;97771.78;4200297;28;20683;-82
2023/02/23 05:05:35;;;;;;;29.63;22.77;;;;;;;9.75;99.05;97778.66;4198570;28;20672;-82
2023/02/23 05:07:38;;;;;;;30.50;22.43;;;;;;;9.75;99.22;97773.47;4195399;28;20632;-82
2023/02/23 05:09:41;;;;;;;33.03;23.83;;;;;;;9.77;99.48;97779.38;4194623;28;20674;-82
2023/02/23 05:11:45;;;;;;;29.43;23.70;;;;;;;9.76;99.51;97780.31;4177030;28;20670;-82
2023/02/23 05:13:48;;;;;;;32.60;25.03;;;;;;;9.76;99.76;97775.09;4196782;28;20722;-82
2023/02/23 05:15:56;;;;;;;28.37;22.30;;;;;;;9.74;99.32;97777.00;4198556;28;20653;-82
2023/02/23 05:17:59;;;;;;;28.83;22.70;;;;;;;9.74;99.64;97775.25;4197558;28;20631;-82
2023/02/23 05:20:04;;;;;;;31.23;23.87;;;;;;;9.76;99.51;97777.69;4188124;28;20632;-82
2023/02/23 05:22:11;;;;;;;31.10;22.97;;;;;;;9.79;99.76;97780.09;4181463;28;20723;-81
2023/02/23 05:24:15;;;;;;;33.93;24.50;;;;;;;9.82;99.66;97777.28;4199907;28;21173;-81
2023/02/23 05:26:18;;;;;;;37.70;25.73;;;;;;;9.83;99.24;97781.56;4207942;28;21047;-82
2023/02/23 05:28:21;;;;;;;31.93;23.70;;;;;;;9.83;99.19;97774.56;4185474;28;20676;-82
2023/02/23 05:30:24;;;;;;;38.20;28.77;;;;;;;9.83;99.55;97778.94;4188519;28;20675;-82
2023/02/23 05:32:28;;;;;;;37.00;27.87;;;;;;;9.82;99.43;97772.06;4194124;28;20626;-82
2023/02/23 05:34:31;;;;;;;30.97;24.47;;;;;;;9.85;99.67;97775.31;4197297;28;21190;-82
2023/02/23 05:36:36;;;;;;;30.67;24.13;;;;;;;9.84;99.85;97773.63;4173352;28;20632;-82
2023/02/23 05:38:40;;;;;;;32.60;23.57;;;;;;;9.83;99.45;97777.16;4198836;28;20639;-82
2023/02/23 05:40:43;;;;;;;25.53;21.47;;;;;;;9.84;99.35;97772.81;4212422;28;21004;-80
2023/02/23 05:42:46;;;;;;;32.13;23.90;;;;;;;9.83;99.22;97778.94;4199622;28;20642;-80
2023/02/23 05:44:50;;;;;;;32.50;22.60;;;;;;;9.81;99.96;97780.84;4192933;28;20754;-80
2023/02/23 05:46:53;;;;;;;29.27;21.90;;;;;;;9.82;99.26;97777.28;4194228;28;20646;-80
2023/02/23 05:48:57;;;;;;;30.40;23.37;;;;;;;9.81;98.71;97773.84;4205390;28;20640;-82
2023/02/23 05:51:02;;;;;;;32.13;22.30;;;;;;;9.79;99.63;97778.34;4181551;28;21484;-80
2023/02/23 05:53:06;;;;;;;28.83;22.50;;;;;;;9.78;99.45;97781.88;4186892;28;20631;-80
2023/02/23 05:55:11;;;;;;;31.43;22.90;;;;;;;9.78;98.91;97779.28;4195126;28;21065;-82
2023/02/23 05:57:14;;;;;;;33.43;21.80;;;;;;;9.78;99.55;97781.06;4181436;28;21029;-83
2023/02/23 05:59:19;;;;;;;26.67;20.87;;;;;;;9.78;99.54;97781.06;4188794;28;20642;-84
2023/02/23 06:01:22;;;;;;;34.07;23.73;;;;;;;9.77;99.98;97777.59;4195797;28;20635;-85
2023/02/23 06:03:26;;;;;;;38.50;27.03;;;;;;;9.78;99.90;97781.88;4192840;28;20655;-81
2023/02/23 06:05:29;;;;;;;38.60;26.90;;;;;;;9.79;100.00;97780.09;4190140;28;20648;-79
2023/02/23 06:07:32;;;;;;;40.55;26.25;;;;;;;9.81;100.00;97778.22;4199306;28;20205;-79
2023/02/23 06:09:37;;;;;;;36.60;24.73;;;;;;;9.84;100.00;97782.25;4204907;28;20718;-79
2023/02/23 06:11:40;;;;;;;41.50;26.53;;;;;;;9.84;100.00;97778.84;4199952;28;20620;-79
2023/02/23 06:13:43;;;;;;;43.93;27.57;;;;;;;9.85;100.00;97783.94;4182855;28;20719;-78
2023/02/23 06:15:46;;;;;;;41.90;27.30;;;;;;;9.88;100.00;97788.13;4204800;28;20669;-79
2023/02/23 06:17:50;;;;;;;36.00;26.27;;;;;;;9.91;100.00;97788.72;4184569;28;21529;-78
2023/02/23 06:19:53;;;;;;;39.87;27.57;;;;;;;9.93;100.00;97797.28;4203468;28;21048;-79
2023/02/23 06:21:56;;;;;;;36.13;26.53;;;;;;;9.98;100.00;97797.81;4201693;28;21424;-80
2023/02/23 06:23:59;;;;;;;36.70;26.63;;;;;;;10.01;100.00;97808.03;4201656;28;21189;-81
2023/02/23 06:26:04;;;;;;;36.37;27.00;;;;;;;10.02;100.00;97807.06;4200886;28;20301;-82
2023/02/23 06:28:09;;;;;;;37.57;25.43;;;;;;;10.01;100.00;97813.22;4196200;28;20634;-82
2023/02/23 06:30:15;;;;;;;36.63;26.37;;;;;;;9.99;100.00;97806.44;4185605;28;21041;-82
2023/02/23 06:32:18;;;;;;;32.57;25.30;;;;;;;9.98;100.00;97807.38;4191309;28;21189;-82
2023/02/23 06:34:24;;;;;;;32.70;24.20;;;;;;;9.98;100.00;97813.44;4178787;28;21388;-80
2023/02/23 06:36:27;;;;;;;30.03;23.67;;;;;;;9.98;100.00;97813.44;4199850;28;20683;-80
2023/02/23 06:38:30;;;;;;;31.70;22.90;;;;;;;9.97;100.00;97809.16;4191192;28;20630;-82
2023/02/23 06:40:33;;;;;;;32.67;24.37;;;;;;;10.00;100.00;97816.75;4190954;28;20632;-81
2023/02/23 06:42:38;;;;;;;31.20;23.10;;;;;;;9.99;100.00;97814.25;4190348;28;20983;-82
2023/02/23 06:44:41;;;;;;;31.97;23.83;;;;;;;9.99;100.00;97817.69;4202276;28;20200;-82
2023/02/23 06:46:45;;;;;;;32.67;23.20;;;;;;;9.99;100.00;97817.69;4205175;28;21221;-82
2023/02/23 06:48:48;;;;;;;32.47;22.50;;;;;;;9.97;100.00;97819.59;4186363;28;20661;-82
2023/02/23 06:50:51;;;;;;;31.67;23.47;;;;;;;9.98;100.00;97810.84;4202835;28;20625;-82
2023/02/23 06:52:56;;;;;;;32.40;23.27;;;;;;;10.00;100.00;97821.16;4190681;28;20661;-82
2023/02/23 06:54:59;;;;;;;36.13;24.57;;;;;;;10.00;100.00;97829.78;4178218;28;20679;-82
2023/02/23 06:57:03;;;;;;;34.10;24.65;;;;;;;10.02;100.00;97827.06;4199097;28;20710;-81
2023/02/23 06:59:08;;;;;;;32.37;23.90;;;;;;;10.03;100.00;97826.97;4187975;28;20231;-81
2023/02/23 07:01:12;;;;;;;34.20;23.20;;;;;;;10.04;100.00;97827.78;4197860;28;20635;-81
2023/02/23 07:03:18;;;;;;;28.80;23.50;;;;;;;10.07;100.00;97838.00;4187107;28;21219;-81
2023/02/23 07:05:21;;;;;;;32.40;25.00;;;;;;;10.09;100.00;97833.53;4197458;28;21013;-81
2023/02/23 07:07:25;;;;;;;35.55;25.38;;;;;;;10.08;100.00;97835.28;4197419;28;20737;-81
2023/02/23 07:09:28;;;;;;;30.88;23.30;;;;;;;10.09;100.00;97831.75;4204975;28;20219;-81
2023/02/23 07:11:32;;;;;;;33.60;26.10;;;;;;;10.10;100.00;97828.22;4203321;28;20209;-81
2023/02/23 07:13:35;;;;;;;32.40;25.80;;;;;;;10.12;100.00;97835.94;4188650;28;20642;-81
2023/02/23 07:15:41;;;;;;;34.10;25.60;;;;;;;10.14;100.00;97839.25;4201950;28;20335;-81
2023/02/23 07:17:47;;;;;;;31.80;24.50;;;;;;;10.17;100.00;97834.63;4198673;28;20646;-81
2023/02/23 07:19:50;;;;;;;37.87;27.03;;;;;;;10.20;100.00;97837.03;4201518;28;20748;-81
2023/02/23 07:21:54;;;;;;;33.70;26.00;;;;;;;10.24;100.00;97840.25;4185679;28;21225;-81
2023/02/23 07:23:57;;;;;;;32.63;24.40;;;;;;;10.26;100.00;97844.41;4193752;28;20627;-81
2023/02/23 07:26:00;;;;;;;31.67;24.70;;;;;;;10.30;100.00;97847.63;4205922;28;20623;-81
2023/02/23 07:28:04;;;;;;;30.80;24.87;;;;;;;10.32;100.00;97853.59;4196891;28;21003;-81
2023/02/23 07:30:09;;;;;;;33.40;24.20;;;;;;;10.37;100.00;97852.28;4197599;28;20627;-81
2023/02/23 07:32:13;;;;;;;32.20;24.77;;;;;;;10.38;100.00;97853.97;4179447;28;20671;-81
2023/02/23 07:34:17;;;;;;;34.80;25.87;;;;;;;10.39;100.00;97855.66;4186457;28;20631;-81
2023/02/23 07:36:22;;;;;;;34.43;26.40;;;;;;;10.39;100.00;97847.81;4200122;28;21489;-81
2023/02/23 07:38:25;;;;;;;34.07;25.70;;;;;;;10.39;100.00;97855.66;4201678;28;20626;-80
2023/02/23 07:40:28;;;;;;;35.03;25.43;;;;;;;10.37;100.00;97853.16;4186588;28;20697;-83
2023/02/23 07:42:31;;;;;;;35.47;24.57;;;;;;;10.37;100.00;97860.09;4197152;28;20659;-82
2023/02/23 07:44:35;;;;;;;29.80;24.27;;;;;;;10.37;100.00;97855.75;4195505;28;20692;-83
2023/02/23 07:46:38;;;;;;;34.13;25.90;;;;;;;10.37;100.00;97858.34;4188894;28;20735;-82
2023/02/23 07:48:44;;;;;;;35.23;26.73;;;;;;;10.38;100.00;97853.97;4187797;28;20635;-82
2023/02/23 07:50:47;;;;;;;34.00;25.77;;;;;;;10.39;99.71;97861.69;4187734;28;20628;-82
2023/02/23 07:52:51;;;;;;;37.57;26.47;;;;;;;10.42;100.00;97863.25;4186747;28;21202;-82
2023/02/23 07:54:55;;;;;;;34.90;27.60;;;;;;;10.43;100.00;97867.50;4198443;28;20618;-82
2023/02/23 07:56:59;;;;;;;36.47;26.80;;;;;;;10.44;100.00;97861.34;4186878;28;20644;-82
2023/02/23 07:59:03;;;;;;;43.70;30.23;;;;;;;10.45;100.00;97863.03;4187008;28;20639;-83
2023/02/23 08:01:07;;;;;;;38.27;28.23;;;;;;;10.45;99.87;97865.63;4188307;28;20635;-82
2023/02/23 08:03:10;;;;;;;39.43;28.53;;;;;;;10.45;100.00;97869.06;4192724;28;20632;-83
2023/02/23 08:05:15;;;;;;;43.57;29.00;;;;;;;10.46;99.80;97868.13;4205721;28;20825;-83
2023/02/23 08:07:18;;;;;;;40.30;29.03;;;;;;;10.47;100.00;97861.97;4192704;28;20611;-83
2023/02/23 08:09:21;;;;;;;44.23;30.60;;;;;;;10.50;100.00;97866.94;4203473;28;21191;-82
2023/02/23 08:11:27;;;;;;;38.87;29.77;;;;;;;10.53;99.92;97871.94;4190511;28;20627;-83
2023/02/23 08:13:31;;;;;;;40.53;28.70;;;;;;;10.55;100.00;97867.44;4201841;28;20766;-83
2023/02/23 08:15:34;;;;;;;37.90;28.73;;;;;;;10.60;99.74;97873.19;4187690;28;20681;-82
2023/02/23 08:17:38;;;;;;;45.47;30.73;;;;;;;10.62;100.00;97876.50;4192049;28;20666;-83
2023/02/23 08:19:41;;;;;;;40.87;29.13;;;;;;;10.64;100.00;97881.59;4206705;28;20634;-83
2023/02/23 08:21:46;;;;;;;38.30;30.27;;;;;;;10.66;100.00;97872.75;4188712;28;20631;-83
2023/02/23 08:23:49;;;;;;;40.20;28.80;;;;;;;10.69;99.87;97875.13;4189770;28;20631;-83
2023/02/23 08:25:54;;;;;;;40.00;27.73;;;;;;;10.72;100.00;97876.66;4201748;28;20670;-83
2023/02/23 08:28:03;;;;;;;39.53;29.43;;;;;;;10.74;99.76;97882.63;4186637;28;20627;-83
2023/02/23 08:30:08;;;;;;;39.20;29.90;;;;;;;10.75;100.00;97881.66;4200771;28;20640;-83
2023/02/23 08:32:12;;;;;;;38.00;27.77;;;;;;;10.78;100.00;97881.44;4188412;28;21315;-83
2023/02/23 08:34:16;;;;;;;38.37;28.93;;;;;;;10.80;100.00;97886.44;4182370;28;20686;-83
2023/02/23 08:36:20;;;;;;;43.63;29.40;;;;;;;10.85;100.00;97881.75;4197290;28;21084;-83
2023/02/23 08:38:24;;;;;;;41.30;29.10;;;;;;;10.85;100.00;97886.97;4179033;28;20706;-83
2023/02/23 08:40:28;;;;;;;41.47;30.17;;;;;;;10.88;100.00;97883.28;4197420;28;20630;-82
2023/02/23 08:42:31;;;;;;;40.03;28.47;;;;;;;10.90;100.00;97884.84;4177323;28;21250;-82
2023/02/23 08:44:35;;;;;;;37.40;28.00;;;;;;;10.95;100.00;97889.72;4176992;28;21050;-82
2023/02/23 08:46:38;;;;;;;45.13;30.60;;;;;;;11.02;100.00;97889.16;4205067;28;20689;-83
2023/02/23 08:48:42;;;;;;;43.20;31.13;;;;;;;11.06;100.00;97893.19;4198266;28;20675;-82
2023/02/23 08:50:48;;;;;;;44.00;31.90;;;;;;;11.09;100.00;97890.34;4206270;28;20692;-83
2023/02/23 08:52:51;;;;;;;41.20;31.03;;;;;;;11.13;100.00;97893.59;4192107;28;20635;-83
2023/02/23 08:54:56;;;;;;;42.27;32.00;;;;;;;11.16;100.00;97895.97;4193257;28;20974;-83
2023/02/23 08:56:59;;;;;;;41.37;31.63;;;;;;;11.20;100.00;97900.88;4204046;28;20654;-82
2023/02/23 08:59:03;;;;;;;38.90;29.27;;;;;;;11.24;100.00;97896.25;4207137;28;21288;-82
2023/02/23 09:01:06;;;;;;;47.50;31.10;;;;;;;11.30;100.00;97907.06;4191993;28;20727;-83
2023/02/23 09:03:09;;;;;;;36.93;31.47;;;;;;;11.36;100.00;97903.97;4202903;28;20644;-83
2023/02/23 09:05:13;;;;;;;55.20;39.37;;;;;;;11.42;100.00;97911.38;4195110;28;21178;-83
2023/02/23 09:07:18;;;;;;;80.77;53.10;;;;;;;11.47;100.00;97906.66;4192070;28;20635;-83
2023/02/23 09:09:21;;;;;;;76.47;49.33;;;;;;;11.51;100.00;97910.72;4191747;28;21404;-83
2023/02/23 09:11:26;;;;;;;57.73;40.70;;;;;;;11.55;100.00;97904.31;4200153;28;20696;-83
2023/02/23 09:13:29;;;;;;;40.10;30.80;;;;;;;11.58;100.00;97904.91;4206861;28;20628;-83
2023/02/23 09:15:32;;;;;;;37.70;29.97;;;;;;;11.63;100.00;97912.41;4204479;28;20684;-83
2023/02/23 09:17:36;;;;;;;37.47;27.63;;;;;;;11.69;100.00;97906.72;4203038;28;20712;-83
2023/02/23 09:19:39;;;;;;;36.43;26.93;;;;;;;11.69;100.00;97914.56;4191220;28;20647;-83
2023/02/23 09:21:44;;;;;;;36.50;25.70;;;;;;;11.72;100.00;97903.88;4184784;28;21242;-82
2023/02/23 09:23:50;;;;;;;34.73;25.40;;;;;;;11.77;100.00;97911.25;4196890;28;20707;-85
2023/02/23 09:25:54;;;;;;;35.47;27.07;;;;;;;11.81;99.35;97904.00;4198313;28;21234;-85
2023/02/23 09:27:59;;;;;;;35.10;25.73;;;;;;;11.82;100.00;97909.13;4201022;28;20627;-83
2023/02/23 09:30:02;;;;;;;34.70;27.60;;;;;;;11.86;99.40;97909.69;4205088;28;21115;-83
2023/02/23 09:32:06;;;;;;;34.23;25.83;;;;;;;11.92;99.07;97917.06;4196165;28;21301;-83
2023/02/23 09:34:11;;;;;;;37.10;26.77;;;;;;;11.98;99.12;97920.06;4188501;28;20628;-83
2023/02/23 09:36:16;;;;;;;40.73;30.77;;;;;;;12.02;99.15;97911.03;4196105;28;20623;-83
2023/02/23 09:38:19;;;;;;;33.10;25.47;;;;;;;12.09;98.88;97920.06;4201814;28;20660;-83
2023/02/23 09:40:25;;;;;;;33.53;24.20;;;;;;;12.20;98.56;97914.03;4198881;28;20961;-83
2023/02/23 09:42:36;;;;;;;33.37;23.93;;;;;;;12.28;97.55;97915.06;4201554;28;20672;-84
2023/02/23 09:44:53;;;;;;;30.50;22.87;;;;;;;12.34;98.03;97915.44;4201554;28;20642;-83
2023/02/23 09:47:07;;;;;;;31.13;23.63;;;;;;;12.40;97.60;97917.59;4197252;28;20628;-84
2023/02/23 09:49:17;;;;;;;34.43;24.70;;;;;;;12.50;96.80;97913.28;4200743;28;20672;-83
2023/02/23 09:51:21;;;;;;;29.77;23.50;;;;;;;12.56;97.16;97911.97;4191614;28;20624;-85
2023/02/23 09:53:29;;;;;;;28.27;22.70;;;;;;;12.60;96.83;97918.59;4187200;28;20632;-85
2023/02/23 09:55:37;;;;;;;28.10;22.20;;;;;;;12.67;96.80;97912.75;4193451;28;21250;-85
2023/02/23 09:57:44;;;;;;;29.30;20.33;;;;;;;12.71;96.73;97914.19;4200066;28;20743;-84
2023/02/23 09:59:49;;;;;;;31.13;19.90;;;;;;;12.72;95.55;97914.06;4200311;28;21182;-83
2023/02/23 10:02:00;;;;;;;27.00;18.37;;;;;;;12.76;95.15;97914.66;4187059;28;20993;-84
2023/02/23 10:04:07;;;;;;;23.27;18.83;;;;;;;12.80;95.12;97916.09;4199757;28;20659;-83
2023/02/23 10:06:13;;;;;;;29.93;18.37;;;;;;;12.84;95.84;97918.38;4217985;28;21029;-83
2023/02/23 10:08:27;;;;;;;24.80;18.30;;;;;;;12.90;94.45;97919.63;4205874;28;20639;-83
2023/02/23 10:10:36;;;;;;;25.30;18.27;;;;;;;12.92;93.67;97915.97;4199700;28;20619;-81
2023/02/23 10:12:45;;;;;;;25.37;19.67;;;;;;;12.99;94.90;97914.53;4201818;28;20646;-84
2023/02/23 10:15:11;;;;;;;23.70;18.87;;;;;;;13.07;94.57;97919.97;4187412;28;20627;-84
2023/02/23 10:17:21;;;;;;;26.77;19.07;;;;;;;13.10;92.72;97919.72;4199804;28;20630;-83
2023/02/23 10:19:28;;;;;;;20.27;16.60;;;;;;;13.11;92.80;97910.06;4196414;28;21010;-83
2023/02/23 10:21:34;;;;;;;22.63;17.47;;;;;;;13.17;93.42;97925.28;4194810;28;20663;-83
2023/02/23 10:23:41;;;;;;;24.17;18.10;;;;;;;13.24;92.89;97922.88;4204933;28;21051;-83
2023/02/23 10:25:47;;;;;;;23.33;17.80;;;;;;;13.38;92.91;97919.13;4197131;28;20638;-83
2023/02/23 10:27:51;;;;;;;22.53;15.73;;;;;;;13.54;92.99;97927.38;4190987;28;20632;-83
2023/02/23 10:29:56;;;;;;;23.30;16.10;;;;;;;13.61;92.25;97923.31;4197489;28;20627;-81
2023/02/23 10:32:05;;;;;;;20.30;17.07;;;;;;;13.69;91.80;97925.13;4199505;28;20737;-81
2023/02/23 10:34:13;;;;;;;21.17;16.70;;;;;;;13.83;91.00;97922.22;4204545;28;20659;-81
2023/02/23 10:36:19;;;;;;;23.40;16.90;;;;;;;14.07;90.95;97920.16;4201224;28;20639;-81
2023/02/23 10:38:22;;;;;;;20.17;15.80;;;;;;;14.24;90.77;97917.78;4198365;28;20747;-81
2023/02/23 10:40:27;;;;;;;17.40;14.57;;;;;;;14.42;87.49;97904.88;4199696;28;20623;-81
2023/02/23 10:42:30;;;;;;;20.07;14.70;;;;;;;14.52;87.83;97919.66;4204745;28;20719;-81
2023/02/23 10:44:34;;;;;;;17.10;14.70;;;;;;;14.69;88.09;97925.13;4188908;28;20717;-81
2023/02/23 10:46:39;;;;;;;17.00;13.47;;;;;;;14.78;87.32;97921.69;4198730;28;20647;-81
2023/02/23 10:48:44;;;;;;;16.70;13.57;;;;;;;14.85;86.20;97922.81;4201638;28;20617;-81
2023/02/23 10:50:49;;;;;;;18.27;14.23;;;;;;;14.89;86.85;97929.47;4196255;28;20624;-81
2023/02/23 10:52:55;;;;;;;16.60;13.20;;;;;;;14.92;87.13;97923.94;4203845;28;20637;-81
2023/02/23 10:54:59;;;;;;;16.47;12.17;;;;;;;14.92;86.78;97926.56;4196455;28;20645;-81
2023/02/23 10:57:03;;;;;;;17.13;12.93;;;;;;;14.96;88.34;97921.84;4202925;28;20625;-81
2023/02/23 10:59:08;;;;;;;21.50;13.73;;;;;;;15.13;89.70;97924.66;4204952;28;21001;-81